Time;durP1;ratioP1;P1;durP2;ratioP2;P2;SDS_P1;SDS_P2;PMS_P1;PMS_P2;Temp;Humidity;BMP_temperature;BMP_pressure;BME280_temperature;BME280_humidity;BME280_pressure;Samples;Min_cycle;Max_cycle;Signal;HPM_P1;HPM_P2
2022/09/16 00:01:23;;;;;;;4.00;1.10;;;11.40;99.90;;;;;;5080486;28;20051;-71
2022/09/16 00:03:54;;;;;;;4.43;1.20;;;11.40;99.90;;;;;;5079508;28;20168;-71
2022/09/16 00:06:30;;;;;;;3.38;0.90;;;11.40;99.90;;;;;;5083091;28;20402;-70
2022/09/16 00:08:59;;;;;;;3.15;0.90;;;11.40;99.90;;;;;;5080740;28;20040;-71
2022/09/16 00:11:26;;;;;;;2.67;1.05;;;11.40;99.90;;;;;;5082014;28;20040;-70
2022/09/16 00:13:51;;;;;;;3.90;0.90;;;11.40;99.90;;;;;;5081513;28;20114;-71
2022/09/16 00:16:23;;;;;;;4.35;1.45;;;11.40;99.90;;;;;;5080345;28;20037;-72
2022/09/16 00:18:56;;;;;;;2.78;1.30;;;11.40;99.90;;;;;;5076530;28;20044;-70
2022/09/16 00:21:23;;;;;;;2.83;1.10;;;11.40;99.90;;;;;;5062643;28;20128;-70
2022/09/16 00:23:49;;;;;;;6.25;1.38;;;11.50;99.90;;;;;;5082250;28;20398;-71
2022/09/16 00:26:15;;;;;;;3.40;0.93;;;11.40;99.90;;;;;;5080002;28;20047;-70
2022/09/16 00:28:41;;;;;;;1.58;1.00;;;11.50;99.90;;;;;;5080414;28;20120;-71
2022/09/16 00:31:06;;;;;;;2.05;1.20;;;11.50;99.90;;;;;;5075700;28;20078;-71
2022/09/16 00:33:32;;;;;;;7.38;1.33;;;11.50;99.90;;;;;;5075791;28;20822;-71
2022/09/16 00:36:12;;;;;;;4.53;1.30;;;11.50;99.90;;;;;;5063175;28;20471;-71
2022/09/16 00:38:39;;;;;;;7.13;1.30;;;11.50;99.90;;;;;;5078868;28;20044;-71
2022/09/16 00:41:06;;;;;;;3.53;1.30;;;11.50;99.90;;;;;;5063313;28;20068;-71
2022/09/16 00:43:50;;;;;;;4.05;1.30;;;11.60;99.90;;;;;;5076177;28;20044;-71
2022/09/16 00:46:24;;;;;;;5.15;1.30;;;11.60;99.90;;;;;;5077052;28;20678;-72
2022/09/16 00:48:50;;;;;;;5.78;1.15;;;11.60;99.90;;;;;;5083026;28;20115;-71
2022/09/16 00:51:17;;;;;;;3.35;1.10;;;11.60;99.90;;;;;;5076754;28;20126;-70
2022/09/16 00:54:01;;;;;;;4.35;1.10;;;11.70;99.90;;;;;;5079376;28;20051;-71
2022/09/16 00:56:27;;;;;;;5.70;1.40;;;11.70;99.90;;;;;;5083841;28;20055;-71
2022/09/16 00:59:01;;;;;;;4.93;1.40;;;11.80;99.90;;;;;;5084090;28;20037;-70
2022/09/16 01:01:27;;;;;;;3.35;1.20;;;11.80;99.90;;;;;;5084999;28;20105;-70
2022/09/16 01:03:57;;;;;;;7.13;1.10;;;11.80;99.90;;;;;;5083567;28;20045;-73
2022/09/16 01:06:24;;;;;;;3.15;1.00;;;11.80;99.90;;;;;;5083971;28;20039;-73
2022/09/16 01:08:50;;;;;;;4.93;1.17;;;11.90;99.90;;;;;;5067100;28;20036;-73
2022/09/16 01:11:16;;;;;;;2.35;0.90;;;11.90;99.90;;;;;;5085972;28;20136;-73
2022/09/16 01:13:43;;;;;;;2.78;0.95;;;11.90;99.90;;;;;;5079745;28;20101;-73
2022/09/16 01:16:35;;;;;;;5.10;1.33;;;11.90;99.90;;;;;;5083130;28;20040;-73
2022/09/16 01:19:12;;;;;;;4.47;0.90;;;11.90;99.90;;;;;;5081862;28;20113;-73
2022/09/16 01:21:55;;;;;;;4.13;1.50;;;11.90;99.90;;;;;;5080996;28;20044;-73
2022/09/16 01:24:36;;;;;;;6.60;1.40;;;12.00;99.90;;;;;;5080243;28;20036;-73
2022/09/16 01:27:04;;;;;;;3.55;1.00;;;12.00;99.90;;;;;;5085261;28;20558;-72
2022/09/16 01:29:48;;;;;;;3.33;1.00;;;12.00;99.90;;;;;;5084684;28;20441;-74
2022/09/16 01:32:53;;;;;;;4.30;1.13;;;12.00;99.90;;;;;;5082600;28;20051;-74
2022/09/16 01:35:45;;;;;;;3.05;0.98;;;11.90;99.90;;;;;;5083502;28;20504;-73
2022/09/16 01:38:35;;;;;;;3.63;1.00;;;12.00;99.90;;;;;;5077746;28;20399;-72
2022/09/16 01:41:20;;;;;;;2.53;1.15;;;12.00;99.90;;;;;;5081305;28;20090;-72
2022/09/16 01:43:55;;;;;;;6.13;1.10;;;12.00;99.90;;;;;;5080321;28;20395;-72
2022/09/16 01:46:47;;;;;;;4.95;0.80;;;12.00;99.90;;;;;;5062694;28;20490;-70
2022/09/16 01:49:30;;;;;;;2.72;1.02;;;11.90;99.90;;;;;;5086297;28;20044;-73
2022/09/16 01:52:23;;;;;;;5.97;1.20;;;11.80;99.90;;;;;;5082623;28;20064;-73
2022/09/16 01:54:58;;;;;;;2.53;1.10;;;11.70;99.90;;;;;;5082526;28;20349;-73
2022/09/16 01:57:34;;;;;;;4.43;1.00;;;11.70;99.90;;;;;;5083735;28;20040;-73
2022/09/16 02:00:05;;;;;;;3.85;1.10;;;11.70;99.90;;;;;;5083811;28;20050;-71
2022/09/16 02:02:36;;;;;;;3.58;0.80;;;11.70;99.90;;;;;;5083016;28;20040;-71
2022/09/16 02:05:07;;;;;;;3.88;0.90;;;11.70;99.90;;;;;;5084042;28;20114;-72
2022/09/16 02:07:37;;;;;;;4.45;0.93;;;11.80;99.90;;;;;;5080254;28;20040;-72
2022/09/16 02:10:13;;;;;;;2.67;1.10;;;11.80;99.90;;;;;;5080032;28;20113;-73
2022/09/16 02:12:43;;;;;;;2.95;0.80;;;11.80;99.90;;;;;;5080061;28;20036;-71
2022/09/16 02:15:17;;;;;;;4.68;1.20;;;11.80;99.90;;;;;;5080449;28;20461;-73
2022/09/16 02:17:50;;;;;;;1.58;0.65;;;11.80;99.90;;;;;;5084850;28;20040;-71
2022/09/16 02:20:21;;;;;;;3.80;0.90;;;11.80;99.90;;;;;;5082578;28;20036;-71
2022/09/16 02:22:52;;;;;;;2.38;0.95;;;11.80;99.90;;;;;;5081123;28;20044;-71
2022/09/16 02:25:20;;;;;;;3.22;0.90;;;11.80;99.90;;;;;;5082146;28;20044;-71
2022/09/16 02:27:48;;;;;;;3.58;0.75;;;11.80;99.90;;;;;;5084090;28;20122;-70
2022/09/16 02:30:17;;;;;;;5.20;0.90;;;11.70;99.90;;;;;;5082822;28;20044;-71
2022/09/16 02:32:47;;;;;;;3.00;0.70;;;11.70;99.90;;;;;;5081662;28;20355;-71
2022/09/16 02:35:17;;;;;;;1.08;0.70;;;11.60;99.90;;;;;;5080007;28;20047;-70
2022/09/16 02:38:13;;;;;;;3.50;1.02;;;11.50;99.90;;;;;;5080654;28;21522;-72
2022/09/16 02:40:49;;;;;;;4.15;1.00;;;11.50;99.90;;;;;;5081765;28;20075;-70
2022/09/16 02:43:15;;;;;;;3.50;0.88;;;11.50;99.90;;;;;;5078987;28;20075;-70
2022/09/16 02:45:50;;;;;;;3.70;0.70;;;11.50;99.90;;;;;;5074371;28;20491;-71
2022/09/16 02:48:57;;;;;;;5.20;0.80;;;11.50;99.90;;;;;;5081049;28;20054;-71
2022/09/16 02:51:46;;;;;;;3.03;0.90;;;11.60;99.90;;;;;;5080137;28;20039;-71
2022/09/16 02:54:11;;;;;;;1.60;0.80;;;11.50;99.90;;;;;;5014884;28;20050;-70
2022/09/16 02:56:40;;;;;;;1.95;0.60;;;11.50;99.90;;;;;;5081280;28;20600;-72
2022/09/16 02:59:08;;;;;;;2.38;0.77;;;11.50;99.90;;;;;;5082162;28;20312;-73
2022/09/16 03:01:44;;;;;;;5.47;0.80;;;11.40;99.90;;;;;;5082118;28;20122;-72
2022/09/16 03:04:13;;;;;;;3.60;0.80;;;11.40;99.90;;;;;;5080755;28;20036;-72
2022/09/16 03:06:39;;;;;;;4.55;1.42;;;11.30;99.90;;;;;;5082821;28;20039;-73
2022/09/16 03:09:08;;;;;;;5.10;0.80;;;11.30;99.90;;;;;;5080856;28;20123;-73
2022/09/16 03:12:02;;;;;;;3.78;0.82;;;11.20;99.90;;;;;;5078801;28;20489;-72
2022/09/16 03:14:35;;;;;;;6.03;2.00;;;11.20;99.90;;;;;;5077891;28;20064;-71
2022/09/16 03:17:22;;;;;;;2.45;0.93;;;11.20;99.90;;;;;;5080240;28;20075;-71
2022/09/16 03:19:56;;;;;;;2.90;0.80;;;11.10;99.90;;;;;;5082131;28;20387;-74
2022/09/16 03:22:25;;;;;;;4.13;1.30;;;11.10;99.90;;;;;;5081146;28;20043;-73
2022/09/16 03:25:04;;;;;;;5.38;1.00;;;11.00;99.90;;;;;;5064399;28;20123;-74
2022/09/16 03:27:34;;;;;;;4.75;1.15;;;11.00;99.90;;;;;;5081456;28;20127;-72
2022/09/16 03:30:06;;;;;;;1.40;0.80;;;11.10;99.90;;;;;;5082526;28;20048;-73
2022/09/16 03:32:42;;;;;;;4.72;1.05;;;11.10;99.90;;;;;;5079877;28;20063;-72
2022/09/16 03:35:18;;;;;;;2.85;0.90;;;11.10;99.90;;;;;;5081499;28;20113;-73
2022/09/16 03:37:45;;;;;;;4.55;1.30;;;11.10;99.90;;;;;;5082025;28;20509;-71
2022/09/16 03:40:13;;;;;;;4.03;0.98;;;11.10;99.90;;;;;;5082897;28;20638;-72
2022/09/16 03:42:43;;;;;;;4.13;1.42;;;11.20;99.90;;;;;;5076848;28;20040;-71
2022/09/16 03:45:15;;;;;;;3.42;1.30;;;11.20;99.90;;;;;;5083172;28;20039;-71
2022/09/16 03:47:41;;;;;;;4.35;1.35;;;11.20;99.90;;;;;;5078854;28;20067;-72
2022/09/16 03:50:07;;;;;;;4.07;1.20;;;11.30;99.90;;;;;;5081717;28;20040;-72
2022/09/16 03:52:33;;;;;;;4.18;1.10;;;11.20;99.90;;;;;;5062074;28;20079;-71
2022/09/16 03:54:58;;;;;;;3.72;1.27;;;11.30;99.90;;;;;;5082649;28;20093;-71
2022/09/16 03:57:24;;;;;;;4.20;1.42;;;11.30;99.90;;;;;;5077847;28;20051;-72
2022/09/16 03:59:50;;;;;;;6.38;1.42;;;11.30;99.90;;;;;;5081836;28;20130;-71
2022/09/16 04:02:15;;;;;;;4.10;1.58;;;11.30;99.90;;;;;;5081492;28;20153;-70
2022/09/16 04:04:41;;;;;;;4.40;1.65;;;11.40;99.90;;;;;;5082706;28;20032;-71
2022/09/16 04:07:07;;;;;;;4.43;1.23;;;11.30;99.90;;;;;;5080253;28;20576;-71
2022/09/16 04:09:33;;;;;;;3.95;1.48;;;11.30;99.90;;;;;;5081141;28;20044;-72
2022/09/16 04:11:58;;;;;;;5.22;1.60;;;11.30;99.90;;;;;;5077188;28;20044;-70
2022/09/16 04:14:24;;;;;;;3.42;1.45;;;11.20;99.90;;;;;;5080687;28;20051;-71
2022/09/16 04:16:49;;;;;;;4.55;1.42;;;11.10;99.90;;;;;;5082906;28;20040;-71
2022/09/16 04:19:15;;;;;;;4.93;1.40;;;11.10;99.90;;;;;;5060069;28;20050;-70
2022/09/16 04:21:41;;;;;;;5.25;1.40;;;11.10;99.90;;;;;;5082278;28;20047;-72
2022/09/16 04:24:06;;;;;;;3.47;1.45;;;11.00;99.90;;;;;;5082977;28;20536;-70
2022/09/16 04:26:32;;;;;;;3.78;1.45;;;11.00;99.90;;;;;;5080642;28;20439;-70
2022/09/16 04:28:58;;;;;;;4.93;1.70;;;11.10;99.90;;;;;;5086442;28;20070;-69
2022/09/16 04:31:23;;;;;;;4.43;1.38;;;11.10;99.90;;;;;;5091306;28;20076;-72
2022/09/16 04:33:49;;;;;;;4.32;1.95;;;11.10;99.90;;;;;;5084555;28;20070;-72
2022/09/16 04:36:18;;;;;;;8.02;1.80;;;11.20;99.90;;;;;;5085569;28;20040;-71
2022/09/16 04:38:46;;;;;;;5.20;1.60;;;11.20;99.90;;;;;;5087059;28;20044;-70
2022/09/16 04:41:20;;;;;;;6.00;1.80;;;11.20;99.90;;;;;;5070797;28;20398;-71
2022/09/16 04:43:51;;;;;;;4.72;1.20;;;11.10;99.90;;;;;;5088015;28;20079;-70
2022/09/16 04:46:17;;;;;;;4.05;1.40;;;11.20;99.90;;;;;;5088844;28;20056;-71
2022/09/16 04:48:47;;;;;;;5.60;1.80;;;11.20;99.90;;;;;;5066236;28;20515;-71
2022/09/16 04:51:13;;;;;;;4.93;1.20;;;11.10;99.90;;;;;;5086601;28;20059;-70
2022/09/16 04:53:44;;;;;;;4.28;1.27;;;11.10;99.90;;;;;;5089881;28;20475;-70
2022/09/16 04:56:15;;;;;;;5.22;1.25;;;11.10;99.90;;;;;;5086556;28;20040;-71
2022/09/16 04:58:42;;;;;;;3.28;1.15;;;11.00;99.90;;;;;;5090657;28;20071;-69
2022/09/16 05:01:19;;;;;;;5.63;1.40;;;11.00;99.90;;;;;;5086845;28;20109;-69
2022/09/16 05:03:47;;;;;;;7.95;1.65;;;10.90;99.90;;;;;;5088478;28;20074;-69
2022/09/16 05:06:18;;;;;;;2.85;1.00;;;10.90;99.90;;;;;;5082145;28;20044;-71
2022/09/16 05:08:44;;;;;;;3.85;1.10;;;10.80;99.90;;;;;;5085612;28;20414;-69
2022/09/16 05:11:24;;;;;;;8.18;1.55;;;10.90;99.90;;;;;;5086687;28;20119;-69
2022/09/16 05:13:50;;;;;;;4.60;1.30;;;10.90;99.90;;;;;;5086922;28;21894;-71
2022/09/16 05:16:18;;;;;;;4.03;1.20;;;10.80;99.90;;;;;;5078508;28;20036;-70
2022/09/16 05:18:45;;;;;;;5.78;1.48;;;10.80;99.90;;;;;;5078191;28;20123;-70
2022/09/16 05:21:16;;;;;;;5.90;1.27;;;10.90;99.90;;;;;;5074947;28;20044;-71
2022/09/16 05:23:42;;;;;;;4.07;1.15;;;10.90;99.90;;;;;;5080524;28;20294;-70
2022/09/16 05:26:14;;;;;;;7.65;1.20;;;10.90;99.90;;;;;;5068728;28;20050;-71
2022/09/16 05:28:40;;;;;;;4.03;1.27;;;10.90;99.90;;;;;;5079532;28;20048;-69
2022/09/16 05:31:13;;;;;;;4.13;1.60;;;10.90;99.90;;;;;;5082353;28;20552;-71
2022/09/16 05:33:41;;;;;;;5.30;1.02;;;11.00;99.90;;;;;;5082554;28;20040;-71
2022/09/16 05:36:11;;;;;;;3.80;1.20;;;11.00;99.90;;;;;;5084366;28;20047;-70
2022/09/16 05:38:37;;;;;;;4.55;1.10;;;11.00;99.90;;;;;;5083276;28;20044;-73
2022/09/16 05:41:04;;;;;;;4.93;1.20;;;11.00;99.90;;;;;;5083647;28;20528;-71
2022/09/16 05:43:31;;;;;;;6.32;1.40;;;11.10;99.90;;;;;;5081455;28;20105;-70
2022/09/16 05:45:56;;;;;;;4.93;1.33;;;11.10;99.90;;;;;;5064767;28;20379;-70
2022/09/16 05:48:23;;;;;;;4.20;1.00;;;11.10;99.90;;;;;;5082502;28;20094;-70
2022/09/16 05:51:16;;;;;;;3.83;1.30;;;11.10;99.90;;;;;;5061483;28;20075;-70
2022/09/16 05:53:42;;;;;;;6.05;1.30;;;11.10;99.90;;;;;;5079468;28;20044;-70
2022/09/16 05:56:11;;;;;;;5.05;1.45;;;11.10;99.90;;;;;;5083882;28;20133;-71
2022/09/16 05:58:38;;;;;;;8.77;1.65;;;11.10;99.90;;;;;;5064604;28;20040;-71
2022/09/16 06:01:15;;;;;;;6.90;1.30;;;11.20;99.90;;;;;;5085225;28;20402;-72
2022/09/16 06:03:42;;;;;;;6.18;1.13;;;11.70;99.90;;;;;;5063986;28;20032;-73
2022/09/16 06:06:21;;;;;;;6.38;1.10;;;12.20;99.90;;;;;;5082818;28;20422;-70
2022/09/16 06:08:48;;;;;;;4.30;1.15;;;12.80;99.90;;;;;;5078757;28;20040;-67
2022/09/16 06:11:13;;;;;;;5.90;1.23;;;13.40;99.90;;;;;;5078325;28;20032;-73
2022/09/16 06:13:39;;;;;;;5.65;1.30;;;14.00;99.90;;;;;;5081293;28;20548;-69
2022/09/16 06:16:06;;;;;;;7.00;1.13;;;14.70;99.90;;;;;;5078833;28;20048;-70
2022/09/16 06:18:32;;;;;;;4.87;1.20;;;15.30;99.90;;;;;;5083423;28;20052;-70
2022/09/16 06:21:06;;;;;;;2.28;0.90;;;15.80;99.90;;;;;;5083604;28;20799;-72
2022/09/16 06:23:33;;;;;;;4.22;1.52;;;16.20;99.90;;;;;;5081138;28;20032;-69
2022/09/16 06:26:05;;;;;;;5.45;1.30;;;16.60;99.90;;;;;;5082737;28;20067;-74
2022/09/16 06:28:31;;;;;;;3.83;1.08;;;16.70;99.90;;;;;;5084266;28;20055;-73
2022/09/16 06:31:02;;;;;;;4.18;1.17;;;17.00;99.90;;;;;;5086081;28;20028;-67
2022/09/16 06:33:27;;;;;;;4.93;1.00;;;17.20;99.90;;;;;;5081374;28;20041;-70
2022/09/16 06:35:53;;;;;;;5.55;1.48;;;17.30;99.90;;;;;;5079573;28;20047;-69
2022/09/16 06:38:18;;;;;;;5.57;1.38;;;17.40;99.90;;;;;;5082231;28;20048;-71
2022/09/16 06:40:44;;;;;;;4.70;1.30;;;17.60;99.90;;;;;;5082123;28;20032;-69
2022/09/16 06:43:09;;;;;;;5.00;1.08;;;17.90;99.90;;;;;;5085081;28;20077;-71
2022/09/16 06:45:35;;;;;;;6.65;1.67;;;18.00;99.90;;;;;;5082837;28;20127;-70
2022/09/16 06:48:01;;;;;;;5.32;1.42;;;18.10;99.90;;;;;;5084613;28;20498;-69
2022/09/16 06:50:26;;;;;;;7.72;1.10;;;18.40;99.90;;;;;;5084032;28;20050;-70
2022/09/16 06:52:52;;;;;;;4.18;1.17;;;18.60;99.90;;;;;;5084460;28;20372;-70
2022/09/16 06:55:18;;;;;;;8.20;1.25;;;18.70;99.90;;;;;;5082122;28;20040;-68
2022/09/16 06:57:43;;;;;;;4.25;1.05;;;18.80;99.90;;;;;;5087281;28;20059;-68
2022/09/16 07:00:11;;;;;;;5.05;1.10;;;18.50;99.90;;;;;;5083506;28;20047;-69
2022/09/16 07:02:37;;;;;;;;;;;17.50;99.90;;;;;;5082421;28;20052;-70
2022/09/16 07:05:03;;;;;;;7.75;1.38;;;16.90;99.90;;;;;;5086272;28;19943;-69
2022/09/16 07:07:30;;;;;;;9.50;1.60;;;16.50;99.90;;;;;;5086324;28;20482;-68
2022/09/16 07:09:57;;;;;;;4.53;1.10;;;16.30;99.90;;;;;;5086179;28;20463;-68
2022/09/16 07:12:23;;;;;;;6.07;1.63;;;16.10;99.90;;;;;;5086408;28;20040;-70
2022/09/16 07:14:49;;;;;;;8.10;1.38;;;15.90;99.90;;;;;;5065600;28;20563;-69
2022/09/16 07:17:15;;;;;;;7.20;1.20;;;15.70;99.90;;;;;;5078391;28;20045;-69
2022/09/16 07:19:41;;;;;;;8.35;1.40;;;15.60;99.90;;;;;;5081708;28;20036;-69
2022/09/16 07:22:07;;;;;;;5.03;1.08;;;15.50;99.90;;;;;;5080520;28;20048;-70
2022/09/16 07:24:32;;;;;;;6.15;1.05;;;15.30;99.90;;;;;;5063032;28;20061;-69
2022/09/16 07:26:58;;;;;;;6.55;1.25;;;15.20;99.90;;;;;;5078229;28;20044;-68
2022/09/16 07:29:24;;;;;;;6.90;1.55;;;15.20;99.90;;;;;;5076688;28;20040;-69
2022/09/16 07:31:50;;;;;;;6.18;1.20;;;15.20;99.90;;;;;;5084222;28;20036;-69
2022/09/16 07:34:16;;;;;;;6.07;1.50;;;15.20;99.90;;;;;;5080071;28;20043;-69
2022/09/16 07:36:43;;;;;;;5.28;1.13;;;15.30;99.90;;;;;;5078856;28;20096;-69
2022/09/16 07:39:12;;;;;;;9.45;1.40;;;15.50;99.90;;;;;;5082743;28;20044;-69
2022/09/16 07:41:40;;;;;;;8.00;1.58;;;15.20;99.90;;;;;;5083060;28;20117;-70
2022/09/16 07:44:08;;;;;;;7.80;1.25;;;15.00;99.90;;;;;;5079491;28;20063;-69
2022/09/16 07:46:35;;;;;;;5.60;1.40;;;15.10;99.90;;;;;;5083757;28;20056;-69
2022/09/16 07:49:03;;;;;;;5.10;1.00;;;15.20;99.90;;;;;;5080390;28;20043;-69
2022/09/16 07:51:29;;;;;;;6.57;1.67;;;15.20;99.90;;;;;;5082621;28;20131;-69
2022/09/16 07:54:04;;;;;;;8.85;1.50;;;15.20;99.90;;;;;;5082675;28;20044;-68
2022/09/16 07:56:35;;;;;;;6.75;1.20;;;15.10;99.90;;;;;;5079037;28;20057;-69
2022/09/16 07:59:03;;;;;;;6.78;1.50;;;15.10;99.90;;;;;;5082901;28;20360;-68
2022/09/16 08:01:30;;;;;;;5.60;1.30;;;15.30;99.90;;;;;;5083846;28;20097;-69
2022/09/16 08:03:56;;;;;;;6.88;1.10;;;15.30;99.90;;;;;;5082773;28;20548;-70
2022/09/16 08:06:25;;;;;;;4.05;1.20;;;15.50;99.90;;;;;;5084797;28;20075;-70
2022/09/16 08:08:53;;;;;;;6.75;1.20;;;15.50;99.90;;;;;;5085526;28;20076;-69
2022/09/16 08:11:19;;;;;;;6.50;1.00;;;15.50;99.90;;;;;;5088437;28;20076;-69
2022/09/16 08:13:45;;;;;;;9.10;1.77;;;15.60;99.90;;;;;;5077980;28;20767;-69
2022/09/16 08:16:16;;;;;;;8.65;1.92;;;15.70;99.90;;;;;;5087159;28;20051;-70
2022/09/16 08:18:42;;;;;;;7.22;1.63;;;15.70;99.90;;;;;;5082571;28;20135;-69
2022/09/16 08:21:14;;;;;;;6.65;1.33;;;15.90;99.90;;;;;;5090747;28;20426;-69
2022/09/16 08:23:40;;;;;;;7.68;1.25;;;15.90;99.90;;;;;;5088112;28;20178;-69
2022/09/16 08:26:08;;;;;;;5.68;1.10;;;15.90;99.90;;;;;;5087523;28;20123;-68
2022/09/16 08:28:34;;;;;;;7.88;1.58;;;16.10;99.90;;;;;;5088464;28;20036;-68
2022/09/16 08:31:01;;;;;;;9.77;1.48;;;16.10;99.90;;;;;;5091299;28;20124;-69
2022/09/16 08:33:27;;;;;;;9.95;1.75;;;16.10;99.90;;;;;;5090880;28;20040;-70
2022/09/16 08:36:13;;;;;;;9.10;1.63;;;16.20;99.90;;;;;;5087444;28;20438;-70
2022/09/16 08:38:40;;;;;;;6.35;1.08;;;16.20;99.90;;;;;;5085501;28;20072;-69
2022/09/16 08:41:24;;;;;;;7.78;1.40;;;16.20;99.90;;;;;;5085903;28;20491;-69
2022/09/16 08:43:55;;;;;;;5.72;1.10;;;16.30;99.90;;;;;;5080957;28;20044;-69
2022/09/16 08:46:49;;;;;;;7.40;1.52;;;16.40;99.90;;;;;;5084180;28;20531;-70
2022/09/16 08:49:34;;;;;;;10.25;1.63;;;16.50;99.90;;;;;;5040888;28;20450;-69
2022/09/16 08:52:23;;;;;;;7.10;1.27;;;16.60;99.90;;;;;;5084287;28;20040;-69
2022/09/16 08:54:53;;;;;;;5.60;1.27;;;16.60;99.90;;;;;;5071696;28;20406;-69
2022/09/16 08:57:24;;;;;;;6.63;1.52;;;16.70;99.90;;;;;;5092291;28;20039;-69
2022/09/16 09:00:14;;;;;;;7.38;1.48;;;16.90;99.90;;;;;;5086511;28;20152;-68
2022/09/16 09:02:54;;;;;;;11.85;2.25;;;16.90;99.90;;;;;;5082104;28;20076;-71
2022/09/16 09:05:52;;;;;;;8.75;1.63;;;16.60;99.90;;;;;;5083932;28;20048;-69
2022/09/16 09:08:40;;;;;;;6.85;1.30;;;16.40;99.90;;;;;;5085043;28;20052;-69
2022/09/16 09:11:17;;;;;;;8.13;1.58;;;16.60;99.90;;;;;;5088047;28;20047;-68
2022/09/16 09:14:04;;;;;;;8.82;1.45;;;16.80;99.90;;;;;;5086663;28;20092;-70
2022/09/16 09:16:36;;;;;;;7.72;1.63;;;16.90;99.90;;;;;;5086499;28;20040;-69
2022/09/16 09:19:15;;;;;;;7.80;1.52;;;17.20;99.90;;;;;;5082275;28;20102;-69
2022/09/16 09:22:02;;;;;;;11.20;2.05;;;17.70;99.90;;;;;;5083396;28;20052;-70
2022/09/16 09:24:48;;;;;;;11.20;2.00;;;18.10;99.90;;;;;;5086550;28;20051;-71
2022/09/16 09:27:34;;;;;;;7.90;1.80;;;17.70;99.90;;;;;;5070156;28;20044;-70
2022/09/16 09:30:20;;;;;;;7.97;1.42;;;17.40;99.90;;;;;;5088710;28;21083;-70
2022/09/16 09:33:10;;;;;;;8.70;1.58;;;16.90;99.90;;;;;;5090270;28;20048;-71
2022/09/16 09:36:13;;;;;;;10.10;1.73;;;16.90;99.90;;;;;;5085181;28;20097;-70
2022/09/16 09:38:42;;;;;;;7.90;1.80;;;16.70;99.90;;;;;;5072441;28;20048;-71
2022/09/16 09:41:30;;;;;;;11.07;1.90;;;16.40;99.90;;;;;;5090410;28;20044;-70
2022/09/16 09:43:57;;;;;;;7.65;1.80;;;16.50;99.90;;;;;;5085899;28;20052;-70
2022/09/16 09:46:36;;;;;;;9.43;1.90;;;16.70;99.90;;;;;;5085401;28;20069;-70
2022/09/16 09:49:12;;;;;;;7.60;1.73;;;16.80;99.90;;;;;;5088213;28;20072;-70
2022/09/16 09:51:43;;;;;;;12.15;1.67;;;16.90;99.90;;;;;;5078475;28;20090;-74
2022/09/16 09:54:28;;;;;;;8.82;1.98;;;17.10;99.90;;;;;;5088125;28;20105;-70
2022/09/16 09:57:06;;;;;;;10.30;1.63;;;17.10;99.90;;;;;;5091128;28;20036;-69
2022/09/16 09:59:32;;;;;;;6.30;1.52;;;17.30;99.90;;;;;;5084532;28;20101;-70
2022/09/16 10:02:00;;;;;;;9.52;1.40;;;17.40;99.90;;;;;;5086095;28;20036;-70
2022/09/16 10:04:35;;;;;;;6.18;1.77;;;17.40;99.90;;;;;;5092015;28;20467;-70
2022/09/16 10:07:02;;;;;;;8.43;1.45;;;17.70;99.90;;;;;;5091526;28;20039;-70
2022/09/16 10:09:28;;;;;;;4.55;1.52;;;17.60;99.90;;;;;;5087518;28;20126;-71
2022/09/16 10:11:55;;;;;;;6.47;1.45;;;17.20;99.90;;;;;;5086376;28;20542;-71
2022/09/16 10:14:34;;;;;;;7.03;1.70;;;17.10;99.90;;;;;;5087872;28;20038;-70
2022/09/16 10:17:04;;;;;;;5.53;1.48;;;17.00;99.90;;;;;;5088678;28;20608;-70
2022/09/16 10:19:52;;;;;;;9.68;1.60;;;17.10;99.90;;;;;;5088712;28;20043;-70
2022/09/16 10:22:29;;;;;;;7.45;1.38;;;17.40;99.90;;;;;;5089318;28;20032;-71
2022/09/16 10:25:00;;;;;;;7.53;1.43;;;17.60;99.90;;;;;;5071931;28;20707;-71
2022/09/16 10:27:34;;;;;;;6.72;1.45;;;17.50;99.90;;;;;;5087567;28;20123;-70
2022/09/16 10:30:16;;;;;;;6.70;1.33;;;17.70;99.90;;;;;;5088878;28;20079;-70
2022/09/16 10:32:44;;;;;;;5.82;1.17;;;17.60;99.90;;;;;;5084655;28;20127;-71
2022/09/16 10:35:21;;;;;;;7.57;1.70;;;17.70;99.90;;;;;;5086933;28;20071;-70
2022/09/16 10:37:58;;;;;;;8.13;1.60;;;18.00;99.90;;;;;;5083111;28;20089;-72
2022/09/16 10:40:24;;;;;;;9.45;1.60;;;18.10;99.90;;;;;;5087009;28;20058;-72
2022/09/16 10:42:52;;;;;;;7.93;1.92;;;18.20;99.90;;;;;;5085269;28;20411;-72
2022/09/16 10:45:32;;;;;;;4.78;1.20;;;18.30;99.70;;;;;;5085157;28;20040;-72
2022/09/16 10:48:00;;;;;;;7.47;1.60;;;18.60;99.90;;;;;;5061804;28;20488;-74
2022/09/16 10:50:26;;;;;;;9.15;1.42;;;18.70;99.60;;;;;;5083932;28;20055;-72
2022/09/16 10:52:53;;;;;;;5.97;1.40;;;19.00;99.70;;;;;;5065967;28;20051;-73
2022/09/16 10:55:18;;;;;;;8.85;1.70;;;18.90;99.00;;;;;;5080459;28;20127;-72
2022/09/16 10:57:44;;;;;;;5.80;1.40;;;18.40;98.00;;;;;;5084856;28;20469;-71
2022/09/16 11:00:19;;;;;;;10.05;1.85;;;18.20;98.80;;;;;;5083159;28;20033;-72
2022/09/16 11:03:12;;;;;;;6.82;1.45;;;17.80;98.40;;;;;;5088580;28;20040;-73
2022/09/16 11:06:02;;;;;;;4.97;1.50;;;17.80;98.50;;;;;;5084901;28;20047;-71
2022/09/16 11:08:57;;;;;;;7.00;1.70;;;18.10;99.70;;;;;;5086843;28;20067;-77
2022/09/16 11:11:23;;;;;;;6.53;1.52;;;18.30;99.90;;;;;;5085170;28;20589;-70
2022/09/16 11:14:13;;;;;;;9.05;1.73;;;18.40;99.90;;;;;;5086618;28;20036;-75
2022/09/16 11:16:59;;;;;;;8.07;1.58;;;18.50;99.90;;;;;;5087701;28;20142;-72
2022/09/16 11:19:36;;;;;;;5.95;1.83;;;18.70;99.90;;;;;;5082770;28;20040;-70
2022/09/16 11:22:13;;;;;;;8.77;1.67;;;19.10;99.10;;;;;;5091986;28;20052;-71
2022/09/16 11:25:16;;;;;;;10.20;1.80;;;18.50;97.20;;;;;;5086092;28;20387;-73
2022/09/16 11:28:10;;;;;;;7.28;1.45;;;17.60;99.90;;;;;;5087901;28;20044;-70
2022/09/16 11:30:47;;;;;;;6.38;1.05;;;16.40;99.90;;;;;;5077480;28;20059;-68
2022/09/16 11:33:23;;;;;;;4.03;1.15;;;16.30;99.90;;;;;;5081494;28;20434;-67
2022/09/16 11:36:09;;;;;;;6.07;1.35;;;16.30;99.90;;;;;;5081606;28;20044;-68
2022/09/16 11:39:02;;;;;;;6.65;1.67;;;16.30;99.90;;;;;;5084748;28;20386;-68
2022/09/16 11:41:47;;;;;;;11.60;1.88;;;16.40;99.90;;;;;;5092301;28;20512;-68
2022/09/16 11:44:25;;;;;;;12.27;1.95;;;16.50;99.90;;;;;;5089877;28;20048;-68
2022/09/16 11:46:56;;;;;;;6.85;1.92;;;16.60;99.90;;;;;;5090487;28;20040;-68
2022/09/16 11:49:27;;;;;;;8.88;1.92;;;16.70;99.90;;;;;;5090600;28;20048;-69
2022/09/16 11:51:53;;;;;;;8.15;1.73;;;16.70;99.90;;;;;;5089364;28;20036;-68
2022/09/16 11:54:38;;;;;;;7.22;1.75;;;17.00;99.90;;;;;;5088998;28;20541;-68
2022/09/16 11:57:17;;;;;;;6.78;1.70;;;17.00;99.90;;;;;;5081572;28;20055;-69
2022/09/16 11:59:51;;;;;;;8.93;1.83;;;17.20;99.90;;;;;;5087615;28;20040;-69
2022/09/16 12:02:33;;;;;;;5.47;1.42;;;17.40;99.90;;;;;;5085464;28;20052;-69
2022/09/16 12:05:29;;;;;;;9.93;1.58;;;17.50;99.90;;;;;;5082195;28;20432;-69
2022/09/16 12:08:21;;;;;;;9.57;1.47;;;17.60;99.90;;;;;;5076466;28;20064;-69
2022/09/16 12:10:58;;;;;;;5.28;1.30;;;17.50;99.90;;;;;;5062376;28;20044;-69
2022/09/16 12:13:33;;;;;;;6.80;1.50;;;17.20;99.90;;;;;;5088261;28;20044;-70
2022/09/16 12:16:04;;;;;;;6.07;1.60;;;17.30;99.90;;;;;;5078504;28;20048;-70
2022/09/16 12:18:51;;;;;;;6.63;1.50;;;17.40;99.90;;;;;;5087453;28;20055;-70
2022/09/16 12:21:39;;;;;;;4.38;1.23;;;17.70;99.90;;;;;;5073129;28;20048;-70
2022/09/16 12:24:13;;;;;;;4.03;1.05;;;17.80;99.90;;;;;;5080813;28;20091;-69
2022/09/16 12:27:00;;;;;;;5.32;1.25;;;17.90;99.90;;;;;;5083278;28;20046;-70
2022/09/16 12:29:39;;;;;;;;;;;18.10;99.90;;;;;;5079113;28;20119;-70
2022/09/16 12:32:11;;;;;;;7.13;1.17;;;18.10;99.90;;;;;;5087414;28;19931;-70
2022/09/16 12:34:44;;;;;;;6.47;1.58;;;18.20;99.90;;;;;;5081314;28;20036;-72
2022/09/16 12:37:32;;;;;;;8.13;1.58;;;18.40;99.90;;;;;;5091085;28;20068;-70
2022/09/16 12:39:59;;;;;;;7.75;1.33;;;18.40;99.90;;;;;;5089180;28;20494;-71
2022/09/16 12:43:06;;;;;;;11.32;2.20;;;18.70;99.90;;;;;;5092210;28;20083;-70
2022/09/16 12:46:08;;;;;;;7.30;1.20;;;18.80;99.20;;;;;;5083625;28;20048;-71
2022/09/16 12:48:40;;;;;;;4.07;0.95;;;18.20;99.30;;;;;;5072669;28;20051;-70
2022/09/16 12:51:50;;;;;;;4.22;1.10;;;17.00;99.90;;;;;;5095743;28;20043;-71
2022/09/16 12:54:22;;;;;;;3.30;1.15;;;16.50;99.90;;;;;;5087722;28;20085;-70
2022/09/16 12:56:58;;;;;;;2.70;0.73;;;16.40;99.90;;;;;;5094422;28;20096;-70
2022/09/16 12:59:57;;;;;;;4.25;0.73;;;16.40;99.90;;;;;;5089795;28;20048;-71
2022/09/16 13:02:31;;;;;;;3.47;1.10;;;16.30;99.90;;;;;;5086949;28;20417;-71
2022/09/16 13:05:03;;;;;;;4.32;1.08;;;16.30;99.90;;;;;;5094165;28;20044;-70
2022/09/16 13:07:33;;;;;;;6.60;1.00;;;16.50;99.90;;;;;;5068010;28;20047;-72
2022/09/16 13:10:14;;;;;;;4.07;1.13;;;17.00;99.90;;;;;;5095313;28;20051;-71
2022/09/16 13:12:41;;;;;;;4.45;1.15;;;17.20;99.90;;;;;;5082464;28;20048;-72
2022/09/16 13:15:07;;;;;;;4.50;1.20;;;17.50;99.90;;;;;;5076423;28;20062;-71
2022/09/16 13:17:38;;;;;;;6.50;1.10;;;17.50;99.90;;;;;;5094927;28;20478;-72
2022/09/16 13:20:21;;;;;;;4.80;1.05;;;17.70;99.90;;;;;;5093537;28;20052;-72